Time;durP1;ratioP1;P1;durP2;ratioP2;P2;SDS_P1;SDS_P2;PMS_P1;PMS_P2;Temp;Humidity;BMP_temperature;BMP_pressure;BME280_temperature;BME280_humidity;BME280_pressure;Samples;Min_cycle;Max_cycle;Signal;HPM_P1;HPM_P2
2023/03/27 00:00:41;;;;;;;2.30;1.40;;;6.50;99.90;;;;;;5024865;28;20930;-71
2023/03/27 00:03:07;;;;;;;1.30;1.20;;;6.60;99.90;;;;;;5025921;28;20468;-71
2023/03/27 00:05:33;;;;;;;1.37;1.27;;;6.50;99.90;;;;;;5022596;28;20447;-71
2023/03/27 00:08:01;;;;;;;1.10;1.00;;;6.50;99.90;;;;;;5009359;28;20441;-71
2023/03/27 00:10:27;;;;;;;0.90;0.90;;;6.50;99.90;;;;;;5014703;28;20310;-71
2023/03/27 00:12:54;;;;;;;1.00;1.00;;;6.40;99.90;;;;;;5025407;28;20519;-71
2023/03/27 00:15:20;;;;;;;2.20;1.30;;;6.40;99.90;;;;;;5020097;28;20692;-71
2023/03/27 00:17:48;;;;;;;1.33;1.23;;;6.40;99.90;;;;;;5013894;28;20546;-71
2023/03/27 00:20:15;;;;;;;1.43;1.33;;;6.40;99.90;;;;;;5007304;28;20926;-71
2023/03/27 00:22:41;;;;;;;2.60;1.13;;;6.40;99.90;;;;;;4999738;28;20433;-71
2023/03/27 00:25:09;;;;;;;1.60;1.33;;;6.50;99.90;;;;;;5011082;28;20434;-71
2023/03/27 00:27:34;;;;;;;1.40;1.30;;;6.40;99.90;;;;;;5021174;28;20452;-71
2023/03/27 00:30:00;;;;;;;1.30;1.20;;;6.40;99.90;;;;;;5019183;28;20883;-71
2023/03/27 00:32:26;;;;;;;1.40;1.30;;;6.40;99.90;;;;;;5009020;28;20872;-71
2023/03/27 00:34:51;;;;;;;1.50;1.40;;;6.40;99.90;;;;;;5010795;28;20216;-72
2023/03/27 00:37:17;;;;;;;1.90;1.60;;;6.40;99.90;;;;;;5005781;28;20206;-71
2023/03/27 00:39:42;;;;;;;2.13;2.03;;;6.40;99.90;;;;;;5004929;28;20664;-71
2023/03/27 00:42:13;;;;;;;1.83;1.73;;;6.30;99.90;;;;;;5026659;28;20187;-71
2023/03/27 00:44:38;;;;;;;1.93;1.83;;;6.30;99.90;;;;;;5017757;28;20621;-72
2023/03/27 00:47:06;;;;;;;1.83;1.73;;;6.30;99.90;;;;;;5012063;28;20442;-72
2023/03/27 00:49:35;;;;;;;1.80;1.70;;;6.30;99.90;;;;;;5005370;28;20187;-72
2023/03/27 00:52:03;;;;;;;1.80;1.70;;;6.30;99.90;;;;;;5008141;28;20446;-72
2023/03/27 00:54:33;;;;;;;2.40;2.23;;;6.20;99.90;;;;;;4998907;28;20493;-72
2023/03/27 00:57:04;;;;;;;2.47;2.27;;;6.20;99.90;;;;;;5001994;28;20480;-71
2023/03/27 00:59:35;;;;;;;2.90;2.70;;;6.20;99.90;;;;;;5005633;28;20959;-72
2023/03/27 01:02:02;;;;;;;2.60;2.40;;;6.20;99.90;;;;;;5005336;28;20443;-71
2023/03/27 01:04:30;;;;;;;2.60;2.40;;;6.20;99.90;;;;;;5005170;28;20819;-71
2023/03/27 01:06:57;;;;;;;2.97;2.77;;;6.20;99.90;;;;;;5005910;28;20588;-71
2023/03/27 01:09:25;;;;;;;3.73;3.43;;;6.10;99.90;;;;;;5005261;28;20945;-71
2023/03/27 01:12:30;;;;;;;3.23;2.93;;;6.00;99.90;;;;;;5006186;28;20560;-71
2023/03/27 01:15:08;;;;;;;2.60;2.40;;;6.10;99.90;;;;;;5014751;28;20836;-72
2023/03/27 01:18:10;;;;;;;2.40;2.20;;;6.00;99.90;;;;;;5008277;28;20944;-72
2023/03/27 01:20:44;;;;;;;2.33;2.00;;;6.00;99.90;;;;;;5012287;28;20432;-72
2023/03/27 01:23:12;;;;;;;2.83;2.63;;;5.90;99.90;;;;;;5003359;28;20943;-72
2023/03/27 01:26:06;;;;;;;2.33;2.17;;;5.90;99.90;;;;;;5011469;28;20437;-72
2023/03/27 01:29:03;;;;;;;2.90;2.70;;;5.90;99.90;;;;;;5001298;28;20446;-71
2023/03/27 01:31:53;;;;;;;4.10;3.80;;;5.90;99.90;;;;;;5011773;28;20445;-72
2023/03/27 01:34:33;;;;;;;3.57;3.27;;;5.90;99.90;;;;;;5006861;28;20497;-72
2023/03/27 01:37:16;;;;;;;3.47;3.20;;;5.90;99.90;;;;;;5016655;28;20848;-73
2023/03/27 01:40:20;;;;;;;3.67;3.37;;;5.90;99.90;;;;;;5004567;28;20487;-72
2023/03/27 01:43:04;;;;;;;2.50;2.30;;;5.80;99.90;;;;;;5001888;28;20443;-71
2023/03/27 01:45:41;;;;;;;3.40;3.10;;;5.80;99.90;;;;;;5009543;28;20450;-72
2023/03/27 01:48:27;;;;;;;3.10;2.83;;;5.70;99.90;;;;;;4994759;28;20790;-72
2023/03/27 01:50:58;;;;;;;3.03;2.30;;;5.60;99.90;;;;;;4998797;28;20446;-72
2023/03/27 01:53:36;;;;;;;2.60;2.30;;;5.60;99.90;;;;;;5012378;28;20457;-72
2023/03/27 01:56:12;;;;;;;10.20;2.80;;;5.50;99.90;;;;;;5009976;28;20568;-72
2023/03/27 01:58:45;;;;;;;3.20;2.80;;;5.60;99.90;;;;;;5016073;28;20476;-71
2023/03/27 02:01:16;;;;;;;3.83;2.70;;;5.50;99.90;;;;;;5008258;28;20465;-71
2023/03/27 02:03:46;;;;;;;2.37;2.23;;;5.50;99.90;;;;;;5009653;28;20468;-72
2023/03/27 02:06:27;;;;;;;2.90;2.60;;;5.50;99.90;;;;;;5010442;28;20452;-72
2023/03/27 02:09:02;;;;;;;3.50;2.60;;;5.40;99.90;;;;;;5004969;28;20913;-71
2023/03/27 02:11:32;;;;;;;9.73;5.77;;;5.30;99.90;;;;;;5019785;28;20532;-73
2023/03/27 02:14:18;;;;;;;8.60;6.13;;;5.20;99.90;;;;;;5010583;28;20474;-71
2023/03/27 02:16:49;;;;;;;7.00;5.53;;;5.10;99.90;;;;;;5004346;28;20469;-72
2023/03/27 02:19:32;;;;;;;9.30;5.20;;;5.00;99.90;;;;;;5015085;28;20436;-72
2023/03/27 02:21:58;;;;;;;8.73;5.37;;;5.00;99.90;;;;;;5016256;28;20998;-72
2023/03/27 02:24:24;;;;;;;11.77;6.23;;;4.90;99.90;;;;;;5015671;28;20459;-72
2023/03/27 02:26:58;;;;;;;9.40;5.73;;;4.90;99.90;;;;;;5023371;28;20814;-72
2023/03/27 02:29:24;;;;;;;9.63;6.27;;;4.80;99.90;;;;;;5016448;28;20185;-72
2023/03/27 02:32:08;;;;;;;8.17;5.70;;;4.80;99.90;;;;;;5006506;28;20447;-73
2023/03/27 02:34:52;;;;;;;17.27;6.77;;;4.80;99.90;;;;;;5011318;28;20287;-72
2023/03/27 02:37:40;;;;;;;8.73;6.90;;;4.70;99.90;;;;;;5012725;28;20498;-72
2023/03/27 02:40:08;;;;;;;9.13;6.33;;;4.70;99.90;;;;;;5015412;28;20442;-72
2023/03/27 02:43:08;;;;;;;15.13;7.00;;;4.70;99.90;;;;;;5006674;28;20439;-72
2023/03/27 02:45:51;;;;;;;12.90;8.03;;;4.70;99.90;;;;;;5020375;28;20488;-72
2023/03/27 02:48:30;;;;;;;12.07;7.90;;;4.60;99.90;;;;;;4997928;28;20435;-72
2023/03/27 02:51:02;;;;;;;15.60;8.10;;;4.60;99.90;;;;;;5005071;28;20449;-72
2023/03/27 02:53:33;;;;;;;15.53;8.27;;;4.60;99.90;;;;;;5015173;28;20454;-72
2023/03/27 02:56:02;;;;;;;11.30;8.20;;;4.50;99.90;;;;;;5016244;28;20500;-73
2023/03/27 02:58:38;;;;;;;15.70;9.40;;;4.50;99.90;;;;;;5015250;28;20446;-73
2023/03/27 03:01:08;;;;;;;15.63;10.20;;;4.40;99.90;;;;;;5007599;28;20498;-72
2023/03/27 03:03:54;;;;;;;16.60;9.33;;;4.40;99.90;;;;;;5012779;28;20869;-72
2023/03/27 03:06:28;;;;;;;13.00;9.07;;;4.40;99.90;;;;;;5006750;28;20457;-72
2023/03/27 03:09:00;;;;;;;14.80;12.07;;;4.40;99.90;;;;;;5007057;28;20532;-72
2023/03/27 03:11:27;;;;;;;14.53;8.70;;;4.30;99.90;;;;;;5015531;28;20532;-72
2023/03/27 03:13:53;;;;;;;17.30;9.00;;;4.30;99.90;;;;;;5020044;28;20622;-72
2023/03/27 03:16:18;;;;;;;17.53;9.00;;;4.30;99.90;;;;;;5007834;28;20595;-73
2023/03/27 03:18:44;;;;;;;15.23;9.27;;;4.30;99.90;;;;;;5008532;28;20178;-72
2023/03/27 03:21:09;;;;;;;12.73;7.10;;;4.20;99.90;;;;;;5008995;28;20649;-72
2023/03/27 03:23:35;;;;;;;13.97;6.83;;;4.10;99.90;;;;;;5006559;28;20199;-72
2023/03/27 03:26:01;;;;;;;12.87;6.80;;;4.00;99.90;;;;;;5002033;28;20194;-72
2023/03/27 03:28:27;;;;;;;21.73;6.53;;;3.90;99.90;;;;;;5019697;28;20270;-72
2023/03/27 03:30:52;;;;;;;13.43;6.37;;;3.90;99.90;;;;;;5024287;28;20863;-72
2023/03/27 03:33:19;;;;;;;9.63;5.27;;;3.90;99.90;;;;;;5023250;28;20286;-72
2023/03/27 03:35:47;;;;;;;7.70;5.20;;;3.80;99.90;;;;;;5022173;28;20202;-72
2023/03/27 03:38:13;;;;;;;12.27;5.50;;;3.70;99.90;;;;;;5008250;28;20441;-73
2023/03/27 03:40:39;;;;;;;9.87;4.90;;;3.70;99.90;;;;;;5016316;28;20977;-72
2023/03/27 03:43:05;;;;;;;14.87;4.93;;;3.60;99.90;;;;;;5025525;28;20449;-72
2023/03/27 03:45:30;;;;;;;11.13;5.20;;;3.70;99.90;;;;;;5023689;28;20694;-72
2023/03/27 03:47:56;;;;;;;13.43;5.23;;;3.70;99.90;;;;;;5021599;28;20301;-72
2023/03/27 03:50:21;;;;;;;10.10;4.63;;;3.70;99.90;;;;;;5018529;28;20179;-72
2023/03/27 03:52:47;;;;;;;15.43;5.37;;;3.80;99.90;;;;;;5013400;28;20533;-72
2023/03/27 03:55:14;;;;;;;10.03;4.40;;;3.70;99.90;;;;;;5006960;28;20285;-73
2023/03/27 03:57:43;;;;;;;11.63;4.40;;;3.80;99.90;;;;;;5018080;28;20178;-72
2023/03/27 04:00:11;;;;;;;9.37;4.50;;;3.80;99.90;;;;;;5008148;28;20521;-72
2023/03/27 04:02:37;;;;;;;10.57;4.90;;;3.80;99.90;;;;;;5006216;28;20468;-72
2023/03/27 04:05:03;;;;;;;4.80;3.33;;;3.80;99.90;;;;;;5014144;28;20877;-71
2023/03/27 04:07:34;;;;;;;6.23;3.80;;;3.70;99.90;;;;;;5018357;28;20437;-71
2023/03/27 04:10:00;;;;;;;20.43;4.17;;;3.70;99.90;;;;;;5017879;28;20950;-72
2023/03/27 04:12:26;;;;;;;11.90;5.80;;;3.70;99.90;;;;;;5006202;28;20442;-72
2023/03/27 04:14:53;;;;;;;12.60;4.03;;;3.70;99.90;;;;;;5012063;28;20256;-72
2023/03/27 04:17:19;;;;;;;9.67;3.67;;;3.70;99.90;;;;;;5019992;28;20966;-72
2023/03/27 04:19:45;;;;;;;5.50;3.93;;;3.70;99.90;;;;;;5006249;28;21030;-72
2023/03/27 04:22:12;;;;;;;12.90;4.70;;;3.70;99.90;;;;;;5014098;28;20521;-73
2023/03/27 04:24:37;;;;;;;9.00;4.60;;;3.60;99.90;;;;;;5018730;28;20206;-72
2023/03/27 04:27:04;;;;;;;9.93;4.40;;;3.60;99.90;;;;;;5008092;28;20441;-72
2023/03/27 04:29:30;;;;;;;13.43;4.23;;;3.50;99.90;;;;;;5009757;28;20178;-73
2023/03/27 04:31:56;;;;;;;10.40;4.90;;;3.50;99.90;;;;;;5026885;28;20428;-72
2023/03/27 04:34:23;;;;;;;13.67;5.37;;;3.50;99.90;;;;;;5023432;28;20449;-72
2023/03/27 04:36:52;;;;;;;8.73;4.70;;;3.50;99.90;;;;;;5018170;28;20966;-73
2023/03/27 04:39:18;;;;;;;7.90;4.60;;;3.40;99.90;;;;;;5025702;28;20850;-73
2023/03/27 04:41:48;;;;;;;8.13;4.30;;;3.30;99.90;;;;;;5017398;28;20512;-72
2023/03/27 04:44:16;;;;;;;12.43;5.73;;;3.30;99.90;;;;;;5003160;28;20915;-72
2023/03/27 04:46:48;;;;;;;12.20;4.80;;;3.30;99.90;;;;;;5016021;28;20548;-72
2023/03/27 04:49:17;;;;;;;7.43;3.67;;;3.20;99.90;;;;;;5015563;28;20975;-72
2023/03/27 04:51:43;;;;;;;8.40;4.00;;;3.30;99.90;;;;;;5004297;28;20432;-71
2023/03/27 04:54:09;;;;;;;10.80;3.97;;;3.20;99.90;;;;;;5021087;28;20472;-72
2023/03/27 04:56:35;;;;;;;9.63;4.10;;;3.20;99.90;;;;;;5019845;28;20460;-71
2023/03/27 04:59:02;;;;;;;7.17;4.60;;;3.20;99.90;;;;;;5013600;28;20184;-72
2023/03/27 05:01:28;;;;;;;4.80;3.90;;;3.20;99.90;;;;;;4998470;28;20221;-72
2023/03/27 05:03:53;;;;;;;5.73;3.20;;;3.20;99.90;;;;;;5010408;28;20845;-72
2023/03/27 05:06:19;;;;;;;13.90;3.20;;;3.10;99.90;;;;;;5021087;28;20448;-72
2023/03/27 05:08:45;;;;;;;10.77;2.93;;;3.00;99.90;;;;;;5015477;28;20273;-72
2023/03/27 05:11:10;;;;;;;9.03;3.20;;;2.90;99.90;;;;;;5011524;28;20274;-71
2023/03/27 05:13:36;;;;;;;8.63;3.67;;;2.80;99.90;;;;;;5020718;28;20661;-72
2023/03/27 05:16:01;;;;;;;9.20;3.77;;;2.80;99.90;;;;;;5011483;28;20636;-72
2023/03/27 05:18:29;;;;;;;8.70;3.20;;;2.80;99.90;;;;;;5002419;28;20240;-71
2023/03/27 05:20:56;;;;;;;2.40;2.13;;;2.80;99.90;;;;;;5010445;28;20179;-72
2023/03/27 05:23:22;;;;;;;4.37;2.50;;;2.80;99.90;;;;;;5009916;28;20538;-72
2023/03/27 05:25:47;;;;;;;4.50;2.23;;;2.80;99.90;;;;;;5019552;28;20517;-72
2023/03/27 05:28:13;;;;;;;6.37;2.53;;;2.80;99.90;;;;;;5009227;28;20186;-72
2023/03/27 05:30:41;;;;;;;6.40;2.70;;;2.80;99.90;;;;;;5003584;28;20237;-72
2023/03/27 05:33:06;;;;;;;7.73;2.40;;;2.80;99.90;;;;;;5008290;28;20668;-73
2023/03/27 05:35:33;;;;;;;7.07;2.60;;;2.80;99.90;;;;;;5012595;28;20513;-71
2023/03/27 05:37:58;;;;;;;6.83;3.17;;;2.90;99.90;;;;;;5022743;28;20170;-72
2023/03/27 05:40:25;;;;;;;8.37;2.40;;;2.90;99.90;;;;;;5021437;28;20929;-71
2023/03/27 05:42:52;;;;;;;6.10;2.97;;;2.90;99.90;;;;;;5008980;28;20178;-71
2023/03/27 05:45:18;;;;;;;8.67;3.10;;;2.90;99.90;;;;;;5018750;28;20446;-69
2023/03/27 05:47:54;;;;;;;11.37;2.30;;;2.90;99.90;;;;;;5033049;28;20496;-68
2023/03/27 05:50:27;;;;;;;8.43;2.17;;;2.90;99.90;;;;;;5030525;28;20195;-70
2023/03/27 05:53:19;;;;;;;7.93;3.30;;;2.90;99.90;;;;;;5029162;28;20531;-69
2023/03/27 05:55:44;;;;;;;10.20;2.27;;;2.80;99.90;;;;;;5029083;28;20465;-71
2023/03/27 05:58:12;;;;;;;6.30;3.20;;;2.80;99.90;;;;;;5027514;28;20456;-71
2023/03/27 06:00:40;;;;;;;6.07;2.57;;;2.80;99.90;;;;;;5030279;28;20265;-71
2023/03/27 06:03:06;;;;;;;5.20;2.20;;;2.70;99.90;;;;;;5015484;28;20464;-71
2023/03/27 06:05:32;;;;;;;6.77;2.40;;;2.80;99.90;;;;;;5030935;28;20421;-71
2023/03/27 06:07:58;;;;;;;11.80;2.70;;;2.80;99.90;;;;;;5032817;28;20166;-71
2023/03/27 06:10:26;;;;;;;10.13;4.83;;;2.70;99.90;;;;;;5032064;28;20424;-71
2023/03/27 06:13:07;;;;;;;8.40;3.10;;;2.70;99.90;;;;;;5032716;28;20421;-70
2023/03/27 06:15:34;;;;;;;6.50;2.47;;;2.70;99.90;;;;;;5032653;28;20465;-70
2023/03/27 06:17:59;;;;;;;5.63;2.67;;;2.80;99.90;;;;;;5026514;28;20432;-70
2023/03/27 06:20:26;;;;;;;5.73;2.80;;;2.80;99.90;;;;;;5031777;28;20790;-71
2023/03/27 06:22:54;;;;;;;4.27;2.30;;;2.90;99.90;;;;;;5029472;28;20640;-71
2023/03/27 06:25:21;;;;;;;13.30;2.90;;;2.90;99.90;;;;;;5023113;28;20787;-70
2023/03/27 06:27:48;;;;;;;4.67;2.30;;;2.90;99.90;;;;;;5027729;28;20428;-70
2023/03/27 06:30:16;;;;;;;2.70;1.87;;;3.00;99.90;;;;;;5019137;28;20440;-70
2023/03/27 06:32:46;;;;;;;6.27;2.40;;;3.00;99.90;;;;;;5028163;28;20494;-71
2023/03/27 06:35:15;;;;;;;5.93;2.63;;;3.00;99.90;;;;;;5022865;28;20424;-70
2023/03/27 06:37:41;;;;;;;5.10;2.17;;;3.00;99.90;;;;;;5031658;28;20464;-71
2023/03/27 06:40:09;;;;;;;10.70;3.10;;;3.00;99.90;;;;;;5031468;28;20850;-71
2023/03/27 06:42:35;;;;;;;8.10;2.40;;;3.00;99.90;;;;;;5032087;28;20420;-72
2023/03/27 06:45:03;;;;;;;5.20;1.90;;;3.10;99.90;;;;;;5032090;28;20956;-71
2023/03/27 06:47:29;;;;;;;12.70;2.50;;;3.20;99.90;;;;;;5024512;28;20520;-70
2023/03/27 06:49:55;;;;;;;7.00;2.50;;;3.50;99.90;;;;;;5031271;28;21017;-70
2023/03/27 06:52:20;;;;;;;10.93;2.87;;;3.80;99.90;;;;;;5032114;28;20170;-70
2023/03/27 06:54:46;;;;;;;8.23;3.27;;;4.10;99.90;;;;;;5030113;28;20867;-71
2023/03/27 06:57:12;;;;;;;10.00;3.50;;;4.40;99.90;;;;;;5031962;28;20222;-70
2023/03/27 06:59:38;;;;;;;7.07;3.20;;;4.40;99.90;;;;;;5029994;28;20705;-70
2023/03/27 07:02:03;;;;;;;5.17;2.13;;;4.30;99.90;;;;;;5028802;28;20414;-70
2023/03/27 07:04:28;;;;;;;8.80;2.80;;;4.20;99.90;;;;;;5027621;28;20252;-70
2023/03/27 07:06:54;;;;;;;5.50;1.90;;;4.30;99.90;;;;;;5031610;28;20185;-70
2023/03/27 07:09:19;;;;;;;6.73;3.10;;;4.40;99.90;;;;;;5031376;28;20171;-71
2023/03/27 07:11:45;;;;;;;5.30;2.60;;;4.70;99.90;;;;;;5031874;28;20182;-70
2023/03/27 07:14:10;;;;;;;5.00;1.90;;;4.80;99.90;;;;;;5031887;28;20189;-70
2023/03/27 07:16:36;;;;;;;4.70;2.17;;;4.90;99.90;;;;;;5031750;28;20205;-71
2023/03/27 07:19:04;;;;;;;6.50;2.30;;;5.10;99.90;;;;;;5031068;28;20170;-71
2023/03/27 07:21:29;;;;;;;10.07;2.33;;;5.30;99.90;;;;;;5028889;28;20185;-71
2023/03/27 07:23:55;;;;;;;2.40;2.13;;;5.50;99.90;;;;;;5031613;28;20444;-70
2023/03/27 07:26:20;;;;;;;6.87;2.30;;;5.70;99.90;;;;;;5031872;28;20178;-70
2023/03/27 07:28:46;;;;;;;9.80;2.43;;;5.60;99.90;;;;;;5031117;28;20263;-71
2023/03/27 07:31:12;;;;;;;6.63;2.47;;;5.20;99.90;;;;;;5031761;28;20611;-70
2023/03/27 07:33:38;;;;;;;6.40;2.40;;;5.10;99.90;;;;;;5031674;28;20186;-70
2023/03/27 07:36:08;;;;;;;10.30;2.87;;;5.10;99.90;;;;;;5031684;28;20483;-70
2023/03/27 07:38:33;;;;;;;4.07;2.07;;;5.10;99.90;;;;;;5029196;28;20438;-71
2023/03/27 07:41:05;;;;;;;5.20;2.47;;;5.30;99.90;;;;;;5031662;28;20993;-70
2023/03/27 07:43:32;;;;;;;4.70;2.20;;;5.40;99.90;;;;;;5031608;28;20246;-71
2023/03/27 07:45:57;;;;;;;7.27;3.33;;;5.60;99.90;;;;;;5031599;28;20991;-70
2023/03/27 07:48:23;;;;;;;6.50;3.00;;;5.60;99.90;;;;;;5030678;28;20448;-70
2023/03/27 07:50:48;;;;;;;5.93;3.00;;;5.60;99.90;;;;;;5031609;28;20543;-70
2023/03/27 07:53:14;;;;;;;8.53;3.43;;;5.80;99.90;;;;;;5026764;28;20206;-71
2023/03/27 07:55:40;;;;;;;4.23;2.17;;;5.90;99.90;;;;;;5030737;28;20202;-71
2023/03/27 07:58:06;;;;;;;7.97;2.20;;;5.70;99.90;;;;;;5031138;28;20182;-71
2023/03/27 08:00:34;;;;;;;7.40;2.13;;;5.90;99.90;;;;;;5030899;28;20428;-71
2023/03/27 08:03:07;;;;;;;3.90;2.37;;;5.90;99.90;;;;;;5022280;28;20946;-70
2023/03/27 08:05:33;;;;;;;4.70;2.07;;;5.90;99.90;;;;;;5023361;28;20437;-71
2023/03/27 08:07:59;;;;;;;6.33;2.73;;;5.50;99.90;;;;;;5031308;28;20831;-72
2023/03/27 08:10:24;;;;;;;4.60;1.77;;;5.30;99.90;;;;;;5030868;28;20181;-71
2023/03/27 08:12:50;;;;;;;5.97;2.70;;;5.40;99.90;;;;;;5031443;28;20174;-71
2023/03/27 08:15:16;;;;;;;5.70;2.10;;;5.70;99.90;;;;;;5030010;28;20425;-72
2023/03/27 08:17:41;;;;;;;4.83;2.37;;;6.10;99.90;;;;;;5029896;28;20244;-70
2023/03/27 08:20:14;;;;;;;12.20;2.47;;;6.30;99.90;;;;;;5026437;28;20186;-71
2023/03/27 08:22:40;;;;;;;11.03;2.60;;;6.60;99.90;;;;;;5033826;28;20177;-71
2023/03/27 08:25:08;;;;;;;7.07;2.50;;;6.60;99.90;;;;;;5030129;28;20487;-70
2023/03/27 08:27:34;;;;;;;6.23;2.73;;;6.40;99.90;;;;;;5014965;28;20418;-71
2023/03/27 08:30:00;;;;;;;8.70;2.00;;;6.40;99.90;;;;;;5026775;28;20830;-71
2023/03/27 08:32:26;;;;;;;4.30;2.03;;;6.50;99.90;;;;;;5034526;28;20224;-70
2023/03/27 08:34:52;;;;;;;6.97;1.63;;;6.80;99.90;;;;;;5032135;28;20463;-71
2023/03/27 08:37:18;;;;;;;3.50;2.10;;;7.20;99.90;;;;;;5034444;28;20548;-71
2023/03/27 08:39:45;;;;;;;9.97;2.00;;;7.30;99.90;;;;;;5023134;28;20183;-72
2023/03/27 08:42:19;;;;;;;6.70;3.20;;;7.70;99.90;;;;;;5034353;28;20166;-71
2023/03/27 08:44:45;;;;;;;6.43;2.47;;;7.60;99.90;;;;;;5034145;28;20851;-71
2023/03/27 08:47:29;;;;;;;7.13;2.90;;;7.90;99.90;;;;;;5034454;28;20424;-71
2023/03/27 08:49:57;;;;;;;3.97;2.60;;;8.10;99.90;;;;;;5033590;28;20432;-71
2023/03/27 08:52:30;;;;;;;5.00;2.27;;;8.30;99.90;;;;;;5028227;28;20437;-72
2023/03/27 08:55:09;;;;;;;4.70;2.47;;;8.80;99.90;;;;;;5024860;28;20605;-71
2023/03/27 08:57:35;;;;;;;4.97;2.30;;;8.90;99.90;;;;;;5014155;28;20425;-71
2023/03/27 09:00:03;;;;;;;7.90;2.17;;;9.30;99.90;;;;;;5024498;28;20905;-71
2023/03/27 09:02:28;;;;;;;5.17;1.93;;;9.50;99.90;;;;;;5033563;28;20170;-71
2023/03/27 09:05:03;;;;;;;3.90;1.93;;;9.90;99.90;;;;;;5033756;28;20578;-71
2023/03/27 09:07:58;;;;;;;3.13;2.10;;;10.70;99.40;;;;;;5032698;28;20571;-71
2023/03/27 09:10:42;;;;;;;5.43;2.07;;;10.90;94.90;;;;;;5029850;28;20436;-71
2023/03/27 09:13:29;;;;;;;4.83;2.10;;;11.20;95.70;;;;;;5033800;28;20432;-72
2023/03/27 09:16:01;;;;;;;4.07;2.00;;;12.00;92.40;;;;;;5026433;28;20456;-70
2023/03/27 09:18:37;;;;;;;4.03;1.70;;;12.60;90.10;;;;;;5011978;28;20418;-70
2023/03/27 09:21:12;;;;;;;2.63;1.70;;;12.80;88.00;;;;;;5013593;28;21016;-70
2023/03/27 09:23:42;;;;;;;6.57;2.60;;;13.40;83.70;;;;;;5028891;28;20467;-70
2023/03/27 09:26:24;;;;;;;2.70;1.63;;;13.50;80.40;;;;;;5033011;28;20519;-74
2023/03/27 09:29:21;;;;;;;3.37;1.53;;;12.80;80.00;;;;;;5032807;28;20827;-69
2023/03/27 09:31:52;;;;;;;3.50;2.03;;;13.00;80.90;;;;;;5031798;28;20428;-72
2023/03/27 09:34:24;;;;;;;5.27;2.20;;;14.20;74.50;;;;;;5033422;28;20449;-72
2023/03/27 09:36:50;;;;;;;3.10;1.77;;;14.70;69.60;;;;;;5033349;28;20544;-73
2023/03/27 09:39:21;;;;;;;3.77;2.10;;;15.10;68.60;;;;;;5028582;28;20536;-72
2023/03/27 09:41:54;;;;;;;5.90;2.73;;;15.60;68.70;;;;;;5025556;28;20432;-72
2023/03/27 09:44:29;;;;;;;4.93;2.90;;;14.60;65.80;;;;;;5032239;28;20440;-73
2023/03/27 09:47:16;;;;;;;2.93;1.90;;;14.20;67.20;;;;;;5020344;28;20428;-71
2023/03/27 09:49:48;;;;;;;3.67;2.07;;;14.30;63.60;;;;;;5032155;28;20592;-71
2023/03/27 09:52:34;;;;;;;4.67;2.33;;;15.00;63.40;;;;;;5032901;28;20479;-71
2023/03/27 09:55:01;;;;;;;4.23;2.30;;;16.40;61.70;;;;;;5030862;28;20503;-74
2023/03/27 09:57:32;;;;;;;3.10;2.20;;;17.40;57.30;;;;;;5032609;28;20460;-70
2023/03/27 10:00:26;;;;;;;3.77;2.13;;;17.00;53.00;;;;;;5031679;28;20436;-71
2023/03/27 10:03:04;;;;;;;5.60;1.77;;;16.60;53.90;;;;;;5032508;28;20910;-70
2023/03/27 10:05:31;;;;;;;2.83;1.67;;;16.90;57.00;;;;;;5029616;28;20420;-73
2023/03/27 10:07:58;;;;;;;4.00;1.73;;;17.20;53.50;;;;;;5010619;28;20432;-73
2023/03/27 10:10:26;;;;;;;5.47;1.70;;;17.50;51.50;;;;;;5011756;28;20430;-73
2023/03/27 10:12:55;;;;;;;3.43;2.40;;;17.90;49.90;;;;;;5025311;28;20819;-70
2023/03/27 10:15:38;;;;;;;5.27;2.00;;;18.40;48.40;;;;;;5028906;28;20449;-72
2023/03/27 10:18:28;;;;;;;3.67;2.17;;;18.30;47.00;;;;;;5032369;28;20987;-72
2023/03/27 10:20:57;;;;;;;4.30;1.90;;;18.10;47.90;;;;;;5020276;28;20430;-72
2023/03/27 10:23:25;;;;;;;8.23;3.80;;;19.00;48.10;;;;;;5025770;28;20938;-73
2023/03/27 10:25:55;;;;;;;3.87;2.50;;;19.60;47.90;;;;;;5032438;28;20468;-72
2023/03/27 10:28:23;;;;;;;4.40;3.47;;;18.40;46.60;;;;;;5023666;28;20441;-70
2023/03/27 10:31:03;;;;;;;3.03;2.50;;;17.90;50.20;;;;;;5032236;28;20933;-72
2023/03/27 10:33:35;;;;;;;3.17;1.80;;;17.80;48.20;;;;;;5032014;28;20952;-70
2023/03/27 10:36:02;;;;;;;3.60;1.70;;;18.00;46.20;;;;;;5031994;28;20836;-73
2023/03/27 10:38:30;;;;;;;3.60;2.43;;;18.20;45.00;;;;;;5031573;28;20512;-70
2023/03/27 10:40:56;;;;;;;5.60;2.10;;;19.30;44.20;;;;;;5032313;28;20413;-70
2023/03/27 10:43:35;;;;;;;3.83;1.97;;;19.80;43.70;;;;;;5028746;28;20607;-68
2023/03/27 10:46:04;;;;;;;5.00;2.20;;;19.70;44.20;;;;;;5024166;28;20190;-69
2023/03/27 10:49:06;;;;;;;4.57;2.13;;;20.00;42.30;;;;;;5022232;28;21496;-70
2023/03/27 10:51:42;;;;;;;8.93;3.20;;;18.90;42.00;;;;;;5012114;28;20429;-70
2023/03/27 10:54:14;;;;;;;5.37;2.50;;;18.70;41.70;;;;;;5012208;28;20790;-69
2023/03/27 10:56:51;;;;;;;4.70;2.03;;;18.40;41.70;;;;;;5012239;28;20548;-71
2023/03/27 10:59:31;;;;;;;4.23;2.03;;;18.90;41.80;;;;;;5011636;28;20838;-72
2023/03/27 11:02:02;;;;;;;5.43;2.37;;;19.40;41.20;;;;;;5025306;28;20445;-72
2023/03/27 11:04:41;;;;;;;4.90;2.30;;;18.30;40.80;;;;;;5030739;28;20440;-72
2023/03/27 11:07:16;;;;;;;5.63;3.83;;;15.70;43.20;;;;;;5032039;28;20888;-72
2023/03/27 11:09:56;;;;;;;3.77;2.00;;;15.30;43.80;;;;;;5031660;28;20494;-72
2023/03/27 11:12:24;;;;;;;6.83;2.70;;;16.10;43.20;;;;;;5015896;28;20428;-72
2023/03/27 11:14:59;;;;;;;3.10;1.77;;;16.90;41.10;;;;;;5028982;28;20468;-72
2023/03/27 11:17:32;;;;;;;2.87;2.07;;;18.30;39.60;;;;;;5023756;28;20998;-73
2023/03/27 11:20:05;;;;;;;3.80;2.33;;;19.40;38.20;;;;;;5030421;28;20425;-73
2023/03/27 11:22:39;;;;;;;4.87;2.50;;;18.30;39.20;;;;;;5027114;28;20513;-70
2023/03/27 11:25:20;;;;;;;3.97;2.27;;;15.90;42.00;;;;;;5011693;28;20479;-72
2023/03/27 11:28:00;;;;;;;5.17;2.00;;;14.30;45.20;;;;;;5015038;28;20491;-72
2023/03/27 11:30:45;;;;;;;1.83;1.70;;;14.70;45.00;;;;;;5028429;28;20808;-71
2023/03/27 11:33:39;;;;;;;4.93;2.03;;;14.40;43.00;;;;;;5031223;28;20967;-73
2023/03/27 11:36:29;;;;;;;4.60;2.03;;;14.20;45.00;;;;;;5031371;28;20483;-72
2023/03/27 11:39:14;;;;;;;4.60;2.10;;;12.90;46.00;;;;;;5030824;28;20420;-72
2023/03/27 11:41:49;;;;;;;7.20;2.00;;;13.00;47.20;;;;;;5029570;28;20431;-72
2023/03/27 11:44:14;;;;;;;2.50;1.40;;;12.70;47.50;;;;;;5030587;28;20878;-71
2023/03/27 11:47:11;;;;;;;4.17;2.00;;;12.10;48.30;;;;;;5030077;28;20449;-71
2023/03/27 11:50:00;;;;;;;2.60;1.37;;;11.70;50.10;;;;;;5030643;28;20178;-71
2023/03/27 11:52:39;;;;;;;3.03;1.80;;;11.40;50.80;;;;;;5031740;28;20433;-71
2023/03/27 11:55:09;;;;;;;4.80;2.03;;;11.10;51.90;;;;;;5033645;28;20455;-71
2023/03/27 11:57:54;;;;;;;4.50;2.17;;;12.00;52.40;;;;;;5035220;28;20479;-73
2023/03/27 12:00:26;;;;;;;3.13;1.80;;;14.50;49.40;;;;;;5032033;28;20517;-72
2023/03/27 12:02:57;;;;;;;6.40;2.73;;;17.60;45.30;;;;;;5027172;28;20421;-73
2023/03/27 12:05:35;;;;;;;3.17;1.70;;;20.60;40.70;;;;;;5035382;28;20397;-71
2023/03/27 12:08:25;;;;;;;2.53;1.80;;;20.50;39.10;;;;;;5035353;28;20412;-72
2023/03/27 12:10:53;;;;;;;4.77;2.17;;;22.50;36.60;;;;;;5034956;28;20409;-72
2023/03/27 12:13:56;;;;;;;3.97;2.00;;;22.50;34.90;;;;;;5034983;28;20428;-72
2023/03/27 12:16:21;;;;;;;4.87;1.60;;;21.30;35.70;;;;;;5032575;28;20464;-72
2023/03/27 12:19:19;;;;;;;1.90;1.63;;;19.10;35.60;;;;;;5026024;28;20428;-72
2023/03/27 12:22:23;;;;;;;2.00;1.30;;;19.20;35.40;;;;;;5034340;28;20178;-71
2023/03/27 12:25:16;;;;;;;4.10;1.90;;;18.00;36.60;;;;;;5034369;28;20440;-72
2023/03/27 12:28:00;;;;;;;3.63;2.07;;;18.80;37.80;;;;;;5026317;28;20429;-72
2023/03/27 12:31:00;;;;;;;3.73;1.70;;;19.90;36.10;;;;;;5033866;28;20988;-71
2023/03/27 12:33:50;;;;;;;2.97;2.10;;;18.10;36.90;;;;;;5032276;28;20532;-71
2023/03/27 12:36:21;;;;;;;2.20;1.83;;;16.90;38.30;;;;;;5019833;28;20539;-70
2023/03/27 12:38:47;;;;;;;2.40;1.63;;;15.20;40.10;;;;;;5033534;28;20421;-71
2023/03/27 12:41:30;;;;;;;3.10;1.50;;;14.80;41.50;;;;;;5027357;28;20433;-70
2023/03/27 12:44:02;;;;;;;3.47;2.20;;;13.90;43.40;;;;;;5019163;28;20449;-70
2023/03/27 12:46:33;;;;;;;5.67;2.80;;;12.90;45.10;;;;;;5012398;28;20425;-71
2023/03/27 12:48:59;;;;;;;2.40;1.57;;;12.50;46.60;;;;;;5012034;28;20484;-70
2023/03/27 12:51:49;;;;;;;3.63;1.60;;;12.10;47.00;;;;;;5014644;28;20414;-71
2023/03/27 12:54:18;;;;;;;4.40;1.80;;;11.60;48.70;;;;;;5014297;28;20290;-71
2023/03/27 12:56:50;;;;;;;2.50;1.77;;;11.50;49.00;;;;;;5017082;28;20465;-70
2023/03/27 12:59:25;;;;;;;2.90;1.70;;;12.20;49.30;;;;;;5033356;28;20416;-70
2023/03/27 13:02:02;;;;;;;2.97;1.70;;;13.80;47.20;;;;;;5034119;28;20420;-71
2023/03/27 13:04:46;;;;;;;4.03;2.00;;;15.60;45.30;;;;;;5032653;28;20958;-71
2023/03/27 13:07:32;;;;;;;4.70;2.70;;;16.60;42.10;;;;;;5034070;28;20483;-70
2023/03/27 13:10:31;;;;;;;2.63;1.87;;;16.20;42.70;;;;;;5033152;28;20575;-70
2023/03/27 13:13:37;;;;;;;3.50;1.70;;;14.60;43.60;;;;;;5030411;28;20528;-70
2023/03/27 13:16:17;;;;;;;2.17;1.83;;;13.80;45.60;;;;;;5028253;28;20809;-71
2023/03/27 13:18:43;;;;;;;3.93;1.83;;;13.00;47.10;;;;;;5032965;28;20439;-70